Far Sleipner — LASG7 — position and weather

sailwx.info

Track history (hours):
 
Tides and Currents Weather Stations Pressure Air Temp Water Temp Dewpoint Dewpoint Depression Visibility Wind Speed Wind Dir Waves Ship Positions

Far Sleipner

Last reported at 2018-Jun-10 19:50 UTC. Time now 2018-Jun-25 02:09 UTC.
Position S 05°03' E 011°44'.
Warning: this ship's position is 14 days out of date.

Length 143 m; draft 6.9 m.

Type: Ship (hazmat cat A). MMSI: 257794000.

Date/timePositionNaut miles runAvg speedWind from/ knotsBaromVisibWave heightAir tempDewpointWater temp
2018-Jun-10 19:50S 05°03' E 011°44'0 0.0
2018-Jun-10 19:27S 05°03' E 011°44'0 0.0
2018-Jun-10 19:00S 05°03' E 011°44'0 0.0
2018-Jun-10 18:30S 05°03' E 011°44'0 0.0
2018-Jun-10 17:59S 05°03' E 011°44'0 0.0
2018-Jun-10 17:30S 05°03' E 011°44'2 0.7
2018-Jun-10 15:07S 05°01' E 011°44'510.4
2018-Jun-10 14:36S 04°56' E 011°45'110.3
2018-Jun-10 14:30S 04°55' E 011°45'6 5.6
2018-Jun-10 13:24S 04°49' E 011°47'0 0.0
2018-Jun-10 13:00S 04°49' E 011°47'0 0.0
2018-Jun-10 12:30S 04°49' E 011°47'0 0.0
2018-Jun-10 11:59S 04°49' E 011°47'37 2.3
2018-Jun-09 20:14S 05°17' E 011°23'0 0.5
2018-Jun-09 20:00S 05°17' E 011°23'0 0.3
2018-Jun-09 19:30S 05°17' E 011°22'0 0.0
2018-Jun-09 19:00S 05°17' E 011°22'0 0.0
2018-Jun-09 18:30S 05°17' E 011°22'0 0.0
2018-Jun-09 17:59S 05°17' E 011°22'7 0.3
2018-Jun-08 19:42S 05°23' E 011°26'0 1.0
2018-Jun-08 19:30S 05°23' E 011°26'0 0.1
2018-Jun-08 18:59S 05°23' E 011°26'0 0.0
2018-Jun-08 18:26S 05°23' E 011°26'0 0.2
2018-Jun-08 17:59S 05°23' E 011°26'10 0.5
2018-Jun-07 19:32S 05°14' E 011°21'3 0.1
2018-Jun-06 23:51S 05°13' E 011°19'0 0.2
2018-Jun-06 23:27S 05°13' E 011°19'0 0.0
2018-Jun-06 22:31S 05°13' E 011°19'0 0.0
2018-Jun-06 22:30S 05°13' E 011°19'0 0.0
2018-Jun-06 22:00S 05°13' E 011°19'0 0.0
2018-Jun-06 21:29S 05°13' E 011°19'  
Track history (hours):
 
Tides and Currents Weather Stations Pressure Air Temp Water Temp Dewpoint Dewpoint Depression Visibility Wind Speed Wind Dir Waves Ship Positions

Far Sleipner

Last reported at 2018-Jun-10 19:50 UTC. Time now 2018-Jun-25 02:10 UTC.
Position S 05°03' E 011°44'.
Warning: this ship's position is 14 days out of date.

Length 143 m; draft 6.9 m.

Type: Ship (hazmat cat A). MMSI: 257794000.

Date/timePositionNaut miles runAvg speedWind from/ knotsBaromVisibWave heightAir tempDewpointWater temp
2018-Jun-10 19:50S 05°03' E 011°44'0 0.0
2018-Jun-10 19:27S 05°03' E 011°44'0 0.0
2018-Jun-10 19:00S 05°03' E 011°44'0 0.0
2018-Jun-10 18:30S 05°03' E 011°44'0 0.0
2018-Jun-10 17:59S 05°03' E 011°44'0 0.0
2018-Jun-10 17:30S 05°03' E 011°44'2 0.7
2018-Jun-10 15:07S 05°01' E 011°44'510.4
2018-Jun-10 14:36S 04°56' E 011°45'110.3
2018-Jun-10 14:30S 04°55' E 011°45'6 5.6
2018-Jun-10 13:24S 04°49' E 011°47'0 0.0
2018-Jun-10 13:00S 04°49' E 011°47'0 0.0
2018-Jun-10 12:30S 04°49' E 011°47'0 0.0
2018-Jun-10 11:59S 04°49' E 011°47'37 2.3
2018-Jun-09 20:14S 05°17' E 011°23'0 0.5
2018-Jun-09 20:00S 05°17' E 011°23'0 0.3
2018-Jun-09 19:30S 05°17' E 011°22'0 0.0
2018-Jun-09 19:00S 05°17' E 011°22'0 0.0
2018-Jun-09 18:30S 05°17' E 011°22'0 0.0
2018-Jun-09 17:59S 05°17' E 011°22'7 0.3
2018-Jun-08 19:42S 05°23' E 011°26'0 1.0
2018-Jun-08 19:30S 05°23' E 011°26'0 0.1
2018-Jun-08 18:59S 05°23' E 011°26'0 0.0
2018-Jun-08 18:26S 05°23' E 011°26'0 0.2
2018-Jun-08 17:59S 05°23' E 011°26'10 0.5
2018-Jun-07 19:32S 05°14' E 011°21'3 0.1
2018-Jun-06 23:51S 05°13' E 011°19'0 0.2
2018-Jun-06 23:27S 05°13' E 011°19'0 0.0
2018-Jun-06 22:31S 05°13' E 011°19'0 0.0
2018-Jun-06 22:30S 05°13' E 011°19'0 0.0
2018-Jun-06 22:00S 05°13' E 011°19'0 0.0
2018-Jun-06 21:29S 05°13' E 011°19'  

Dump ship's entire track history